Time;durP1;ratioP1;P1;durP2;ratioP2;P2;SDS_P1;SDS_P2;PMS_P1;PMS_P2;Temp;Humidity;BMP_temperature;BMP_pressure;BME280_temperature;BME280_humidity;BME280_pressure;Samples;Min_cycle;Max_cycle;Signal;HPM_P1;HPM_P2
2021/09/29 00:00:07;;;;;;;12.93;11.55;;;;;;;;;;5032184;28;20069;-44
2021/09/29 00:02:37;;;;;;;15.73;12.48;;;;;;;;;;5036243;28;20053;-48
2021/09/29 00:05:05;;;;;;;16.80;13.27;;;;;;;;;;5035425;28;20073;-45
2021/09/29 00:07:32;;;;;;;16.60;12.85;;;;;;;;;;5023497;28;20459;-45
2021/09/29 00:09:59;;;;;;;15.65;12.68;;;;;;;;;;5035701;28;20148;-44
2021/09/29 00:12:25;;;;;;;16.15;13.55;;;;;;;;;;5037165;28;20044;-44
2021/09/29 00:14:52;;;;;;;15.38;11.98;;;;;;;;;;5035411;28;20041;-46
2021/09/29 00:17:19;;;;;;;16.45;13.00;;;;;;;;;;5031904;28;20060;-44
2021/09/29 00:19:45;;;;;;;17.48;13.40;;;;;;;;;;5033729;28;20076;-45
2021/09/29 00:22:12;;;;;;;13.77;11.73;;;;;;;;;;5036133;28;20049;-48
2021/09/29 00:24:39;;;;;;;14.27;11.68;;;;;;;;;;5030098;28;20434;-44
2021/09/29 00:27:06;;;;;;;14.55;12.23;;;;;;;;;;5011844;28;20042;-45
2021/09/29 00:29:34;;;;;;;15.55;12.07;;;;;;;;;;5018177;28;20124;-49
2021/09/29 00:32:05;;;;;;;15.02;12.35;;;;;;;;;;5033779;28;20037;-47
2021/09/29 00:34:39;;;;;;;14.73;12.32;;;;;;;;;;5031755;28;20083;-46
2021/09/29 00:37:06;;;;;;;14.32;12.18;;;;;;;;;;5013816;28;20091;-45
2021/09/29 00:39:33;;;;;;;15.45;12.00;;;;;;;;;;5025762;28;20041;-45
2021/09/29 00:42:00;;;;;;;17.80;12.70;;;;;;;;;;5032277;28;20461;-46
2021/09/29 00:44:27;;;;;;;17.83;13.73;;;;;;;;;;5031392;28;20655;-45
2021/09/29 00:46:54;;;;;;;15.18;13.48;;;;;;;;;;5028779;28;20046;-45
2021/09/29 00:49:20;;;;;;;18.95;14.48;;;;;;;;;;5032626;28;20055;-45
2021/09/29 00:51:47;;;;;;;17.25;13.75;;;;;;;;;;5033253;28;20116;-48
2021/09/29 00:54:14;;;;;;;19.20;14.55;;;;;;;;;;5026919;28;20037;-44
2021/09/29 00:56:42;;;;;;;17.38;13.48;;;;;;;;;;5027773;28;20049;-44
2021/09/29 00:59:09;;;;;;;19.38;13.95;;;;;;;;;;5030069;28;20509;-44
2021/09/29 01:01:35;;;;;;;18.95;14.77;;;;;;;;;;5033111;28;20458;-45
2021/09/29 01:04:02;;;;;;;18.02;14.98;;;;;;;;;;5031382;28;20092;-44
2021/09/29 01:06:41;;;;;;;20.63;15.50;;;;;;;;;;5032907;28;20133;-46
2021/09/29 01:09:13;;;;;;;19.85;14.57;;;;;;;;;;5025098;28;20403;-44
2021/09/29 01:11:50;;;;;;;18.10;15.07;;;;;;;;;;5032327;28;20132;-46
2021/09/29 01:14:22;;;;;;;19.02;16.40;;;;;;;;;;5030771;28;20042;-44
2021/09/29 01:16:50;;;;;;;17.33;14.55;;;;;;;;;;5030156;28;20512;-43
2021/09/29 01:19:29;;;;;;;25.50;16.10;;;;;;;;;;5013058;28;20073;-43
2021/09/29 01:22:07;;;;;;;18.73;16.08;;;;;;;;;;5023376;28;20041;-43
2021/09/29 01:24:42;;;;;;;19.48;15.02;;;;;;;;;;5031476;28;20098;-43
2021/09/29 01:27:09;;;;;;;21.60;16.25;;;;;;;;;;5025793;28;20497;-43
2021/09/29 01:29:36;;;;;;;18.80;14.95;;;;;;;;;;5021618;28;20133;-43
2021/09/29 01:32:03;;;;;;;18.23;14.68;;;;;;;;;;5012795;28;20046;-45
2021/09/29 01:34:30;;;;;;;16.95;14.18;;;;;;;;;;5021734;28;20495;-43
2021/09/29 01:36:58;;;;;;;16.73;14.18;;;;;;;;;;5030762;28;20046;-45
2021/09/29 01:39:26;;;;;;;19.38;15.23;;;;;;;;;;5023277;28;20390;-45
2021/09/29 01:41:53;;;;;;;18.13;13.18;;;;;;;;;;5031455;28;20060;-45
2021/09/29 01:44:20;;;;;;;16.83;13.40;;;;;;;;;;5030580;28;20536;-43
2021/09/29 01:46:47;;;;;;;15.38;13.23;;;;;;;;;;5032178;28;20541;-42
2021/09/29 01:49:17;;;;;;;18.27;14.18;;;;;;;;;;5026837;28;20132;-45
2021/09/29 01:51:45;;;;;;;18.25;15.23;;;;;;;;;;5030611;28;20037;-43
2021/09/29 01:54:15;;;;;;;21.05;15.80;;;;;;;;;;5030793;28;20084;-45
2021/09/29 01:56:45;;;;;;;23.33;17.02;;;;;;;;;;5029895;28;20045;-46
2021/09/29 01:59:12;;;;;;;22.02;16.27;;;;;;;;;;5024591;28;20068;-46
2021/09/29 02:01:40;;;;;;;23.83;17.63;;;;;;;;;;5020393;28;20077;-44
2021/09/29 02:04:08;;;;;;;21.95;17.83;;;;;;;;;;5026737;28;20435;-44
2021/09/29 02:06:44;;;;;;;22.45;18.25;;;;;;;;;;5031296;28;20069;-44
2021/09/29 02:09:11;;;;;;;23.60;18.20;;;;;;;;;;5031079;28;20125;-44
2021/09/29 02:11:38;;;;;;;25.50;19.20;;;;;;;;;;5023554;28;20071;-43
2021/09/29 02:14:05;;;;;;;30.27;20.67;;;;;;;;;;5031043;28;20048;-46
2021/09/29 02:16:32;;;;;;;25.73;19.80;;;;;;;;;;5031406;28;20081;-46
2021/09/29 02:18:59;;;;;;;29.23;21.13;;;;;;;;;;5030967;28;20076;-48
2021/09/29 02:21:26;;;;;;;27.90;21.27;;;;;;;;;;5023335;28;20410;-45
2021/09/29 02:23:53;;;;;;;25.75;19.75;;;;;;;;;;5031705;28;20051;-45
2021/09/29 02:26:19;;;;;;;27.58;20.88;;;;;;;;;;5031036;28;20091;-45
2021/09/29 02:28:46;;;;;;;26.05;20.33;;;;;;;;;;5024067;28;20131;-45
2021/09/29 02:31:13;;;;;;;26.50;20.08;;;;;;;;;;5031766;28;20065;-44
2021/09/29 02:33:40;;;;;;;27.42;20.85;;;;;;;;;;5030252;28;20125;-44
2021/09/29 02:36:07;;;;;;;28.83;21.63;;;;;;;;;;5036496;28;20048;-45
2021/09/29 02:38:34;;;;;;;29.05;21.23;;;;;;;;;;5035428;28;20037;-45
2021/09/29 02:41:00;;;;;;;27.50;21.17;;;;;;;;;;5031395;28;20048;-46
2021/09/29 02:43:27;;;;;;;30.08;21.25;;;;;;;;;;5030997;28;20075;-45
2021/09/29 02:45:54;;;;;;;31.58;21.48;;;;;;;;;;5030890;28;20132;-44
2021/09/29 02:48:21;;;;;;;30.52;22.42;;;;;;;;;;5014550;28;20086;-46
2021/09/29 02:50:47;;;;;;;30.85;22.40;;;;;;;;;;5011692;28;20147;-45
2021/09/29 02:53:14;;;;;;;30.38;22.42;;;;;;;;;;5011480;28;20492;-44
2021/09/29 02:55:41;;;;;;;33.08;23.42;;;;;;;;;;5019954;28;20073;-44
2021/09/29 02:58:09;;;;;;;33.92;22.58;;;;;;;;;;5020817;28;20048;-45
2021/09/29 03:00:36;;;;;;;31.23;23.20;;;;;;;;;;5027903;28;20469;-44
2021/09/29 03:03:03;;;;;;;35.55;24.20;;;;;;;;;;5031156;28;20091;-43
2021/09/29 03:05:30;;;;;;;34.97;24.00;;;;;;;;;;5031088;28;20053;-45
2021/09/29 03:07:57;;;;;;;32.72;24.33;;;;;;;;;;5025472;28;20128;-43
2021/09/29 03:10:23;;;;;;;35.72;24.17;;;;;;;;;;5031019;28;20392;-48
2021/09/29 03:12:50;;;;;;;33.30;23.58;;;;;;;;;;5029509;28;20491;-44
2021/09/29 03:15:17;;;;;;;34.92;22.50;;;;;;;;;;5025787;28;20073;-45
2021/09/29 03:17:44;;;;;;;35.10;23.35;;;;;;;;;;5015931;28;20049;-45
2021/09/29 03:20:11;;;;;;;34.75;23.60;;;;;;;;;;5031570;28;20049;-44
2021/09/29 03:22:38;;;;;;;33.80;22.40;;;;;;;;;;5031018;28;20573;-44
2021/09/29 03:25:05;;;;;;;34.45;22.15;;;;;;;;;;5028135;28;20042;-45
2021/09/29 03:27:31;;;;;;;33.08;22.02;;;;;;;;;;5031261;28;20069;-44
2021/09/29 03:29:58;;;;;;;33.78;22.58;;;;;;;;;;5030217;28;20055;-45
2021/09/29 03:32:25;;;;;;;32.13;21.75;;;;;;;;;;5030304;28;20040;-46
2021/09/29 03:34:51;;;;;;;33.97;21.42;;;;;;;;;;5030711;28;20069;-45
2021/09/29 03:37:18;;;;;;;29.48;21.38;;;;;;;;;;5030808;28;20487;-45
2021/09/29 03:39:45;;;;;;;33.72;21.30;;;;;;;;;;5022106;28;20056;-48
2021/09/29 03:42:12;;;;;;;31.38;21.63;;;;;;;;;;5029566;28;20547;-45
2021/09/29 03:44:38;;;;;;;32.10;21.58;;;;;;;;;;5030725;28;20052;-45
2021/09/29 03:47:05;;;;;;;28.42;20.65;;;;;;;;;;5026283;28;20105;-45
2021/09/29 03:49:32;;;;;;;29.40;20.55;;;;;;;;;;5031042;28;20038;-45
2021/09/29 03:51:59;;;;;;;28.38;19.27;;;;;;;;;;5030837;28;20136;-45
2021/09/29 03:54:25;;;;;;;26.40;19.67;;;;;;;;;;5030300;28;20053;-45
2021/09/29 03:56:52;;;;;;;29.17;19.40;;;;;;;;;;5023113;28;20308;-44
2021/09/29 03:59:19;;;;;;;29.23;20.02;;;;;;;;;;5022805;28;20108;-43
2021/09/29 04:01:46;;;;;;;30.60;19.20;;;;;;;;;;5013271;28;20056;-45
2021/09/29 04:04:13;;;;;;;26.13;18.20;;;;;;;;;;5032847;28;20049;-43
2021/09/29 04:06:40;;;;;;;25.92;18.80;;;;;;;;;;5034285;28;20505;-44
2021/09/29 04:09:07;;;;;;;25.65;19.20;;;;;;;;;;5021330;28;20096;-44
2021/09/29 04:11:33;;;;;;;28.20;18.75;;;;;;;;;;5034416;28;20041;-45
2021/09/29 04:14:00;;;;;;;25.13;17.95;;;;;;;;;;5033874;28;20041;-44
2021/09/29 04:16:27;;;;;;;27.38;18.77;;;;;;;;;;5022886;28;20042;-44
2021/09/29 04:18:54;;;;;;;24.92;18.50;;;;;;;;;;5032405;28;20037;-45
2021/09/29 04:21:21;;;;;;;24.58;17.52;;;;;;;;;;5033972;28;20048;-45
2021/09/29 04:23:48;;;;;;;26.40;18.42;;;;;;;;;;5025308;28;20042;-45
2021/09/29 04:26:15;;;;;;;27.92;18.35;;;;;;;;;;5014271;28;20108;-45
2021/09/29 04:28:42;;;;;;;25.38;17.77;;;;;;;;;;5053445;22;20136;-48
2021/09/29 04:31:09;;;;;;;25.02;18.05;;;;;;;;;;5053260;28;20045;-42
2021/09/29 04:33:36;;;;;;;25.42;17.20;;;;;;;;;;5053217;28;20127;-44
2021/09/29 04:36:03;;;;;;;27.25;18.05;;;;;;;;;;5053754;28;20063;-44
2021/09/29 04:38:30;;;;;;;22.75;16.88;;;;;;;;;;5032484;28;20430;-42
2021/09/29 04:40:56;;;;;;;26.40;17.75;;;;;;;;;;5024155;28;20046;-45
2021/09/29 04:43:23;;;;;;;25.17;17.02;;;;;;;;;;5031968;28;20055;-42
2021/09/29 04:45:50;;;;;;;24.08;16.88;;;;;;;;;;5029152;28;20053;-45
2021/09/29 04:48:18;;;;;;;26.35;17.23;;;;;;;;;;5024855;28;20414;-45
2021/09/29 04:50:45;;;;;;;24.02;16.25;;;;;;;;;;5033999;28;20136;-46
2021/09/29 04:53:12;;;;;;;25.38;16.40;;;;;;;;;;5031145;28;20120;-44
2021/09/29 04:55:39;;;;;;;21.98;15.48;;;;;;;;;;5014412;28;20117;-46
2021/09/29 04:58:08;;;;;;;27.48;16.83;;;;;;;;;;5023069;28;20132;-47
2021/09/29 05:00:35;;;;;;;22.90;14.85;;;;;;;;;;5015763;28;20042;-47
2021/09/29 05:03:02;;;;;;;24.23;15.45;;;;;;;;;;5029773;28;20040;-46
2021/09/29 05:05:33;;;;;;;22.60;15.90;;;;;;;;;;5032051;28;20037;-46
2021/09/29 05:08:01;;;;;;;29.75;17.15;;;;;;;;;;5028947;28;20457;-47
2021/09/29 05:11:00;;;;;;;24.90;16.00;;;;;;;;;;5033586;28;20049;-46
2021/09/29 05:13:30;;;;;;;23.35;15.45;;;;;;;;;;5010073;28;20049;-48
2021/09/29 05:15:57;;;;;;;21.15;15.25;;;;;;;;;;5029101;28;20458;-48
2021/09/29 05:18:24;;;;;;;23.85;15.27;;;;;;;;;;5023857;28;20056;-47
2021/09/29 05:20:51;;;;;;;21.70;14.82;;;;;;;;;;5032267;28;20051;-46
2021/09/29 05:23:18;;;;;;;21.50;15.68;;;;;;;;;;5032344;28;20045;-48
2021/09/29 05:25:45;;;;;;;19.88;15.00;;;;;;;;;;5016616;28;20072;-46
2021/09/29 05:28:12;;;;;;;21.77;14.30;;;;;;;;;;5032271;28;20045;-46
2021/09/29 05:30:39;;;;;;;18.33;13.50;;;;;;;;;;5029164;28;20042;-48
2021/09/29 05:33:06;;;;;;;17.27;13.05;;;;;;;;;;5030875;28;20424;-45
2021/09/29 05:35:33;;;;;;;20.63;13.57;;;;;;;;;;5032456;28;20040;-43
2021/09/29 05:37:59;;;;;;;18.33;12.57;;;;;;;;;;5022089;28;20524;-45
2021/09/29 05:40:26;;;;;;;18.85;12.10;;;;;;;;;;5033421;28;20608;-44
2021/09/29 05:42:53;;;;;;;16.27;11.45;;;;;;;;;;5031761;28;20470;-44
2021/09/29 05:45:20;;;;;;;16.60;11.65;;;;;;;;;;5019174;28;20046;-43
2021/09/29 05:47:47;;;;;;;13.50;9.25;;;;;;;;;;5017312;28;20065;-43
2021/09/29 05:50:13;;;;;;;13.57;9.27;;;;;;;;;;5032449;28;20128;-45
2021/09/29 05:52:40;;;;;;;12.48;8.80;;;;;;;;;;5032122;28;20121;-45
2021/09/29 05:55:07;;;;;;;13.05;9.18;;;;;;;;;;5029151;28;20075;-50
2021/09/29 05:57:34;;;;;;;14.80;8.27;;;;;;;;;;5025618;28;20119;-48
2021/09/29 06:00:03;;;;;;;15.23;9.10;;;;;;;;;;5031379;28;20049;-50
2021/09/29 06:02:37;;;;;;;10.57;7.80;;;;;;;;;;5029074;28;20064;-46
2021/09/29 06:05:04;;;;;;;13.50;9.10;;;;;;;;;;5032224;28;20107;-48
2021/09/29 06:07:31;;;;;;;11.45;7.80;;;;;;;;;;5032442;28;20506;-48
2021/09/29 06:09:58;;;;;;;12.55;8.30;;;;;;;;;;5029559;28;20177;-49
2021/09/29 06:12:25;;;;;;;10.75;7.47;;;;;;;;;;5031330;28;20100;-48
2021/09/29 06:14:54;;;;;;;10.68;7.72;;;;;;;;;;5030752;28;20060;-46
2021/09/29 06:17:25;;;;;;;12.35;8.25;;;;;;;;;;5032538;28;20044;-47
2021/09/29 06:19:52;;;;;;;11.35;7.80;;;;;;;;;;5025734;28;20052;-45
2021/09/29 06:22:19;;;;;;;10.02;7.10;;;;;;;;;;5030840;28;20051;-49
2021/09/29 06:24:46;;;;;;;11.07;7.07;;;;;;;;;;5030687;28;20038;-49
2021/09/29 06:27:13;;;;;;;13.45;8.15;;;;;;;;;;5025769;28;20046;-47
2021/09/29 06:29:40;;;;;;;10.45;7.00;;;;;;;;;;5024017;28;20045;-45
2021/09/29 06:32:07;;;;;;;7.90;6.50;;;;;;;;;;5029945;28;20046;-47
2021/09/29 06:34:34;;;;;;;7.90;6.20;;;;;;;;;;5030435;28;20398;-45
2021/09/29 06:37:01;;;;;;;14.55;9.48;;;;;;;;;;5031637;28;20041;-47
2021/09/29 06:39:28;;;;;;;6.43;5.30;;;;;;;;;;5020424;28;20033;-45
2021/09/29 06:41:55;;;;;;;7.18;5.43;;;;;;;;;;5030156;28;20049;-46
2021/09/29 06:44:21;;;;;;;7.68;4.97;;;;;;;;;;5028048;28;20427;-45
2021/09/29 06:46:49;;;;;;;6.22;4.80;;;;;;;;;;5030436;28;20079;-47
2021/09/29 06:49:16;;;;;;;8.68;4.50;;;;;;;;;;5029180;28;20069;-46
2021/09/29 06:51:43;;;;;;;5.53;3.90;;;;;;;;;;5030875;28;20038;-45
2021/09/29 06:54:10;;;;;;;6.95;3.78;;;;;;;;;;5030301;28;20042;-47
2021/09/29 06:56:37;;;;;;;5.65;4.00;;;;;;;;;;5028277;28;20041;-45
2021/09/29 06:59:03;;;;;;;10.27;4.28;;;;;;;;;;5024337;28;20038;-45
2021/09/29 07:01:30;;;;;;;6.85;3.78;;;;;;;;;;5029662;28;20093;-44
2021/09/29 07:03:57;;;;;;;6.35;3.40;;;;;;;;;;5030779;28;20121;-45
2021/09/29 07:06:24;;;;;;;5.47;3.10;;;;;;;;;;5026905;28;20483;-46
2021/09/29 07:08:51;;;;;;;7.97;4.15;;;;;;;;;;5024874;28;20041;-49
2021/09/29 07:11:17;;;;;;;6.95;4.28;;;;;;;;;;5029360;28;20045;-48
2021/09/29 07:13:45;;;;;;;4.90;3.25;;;;;;;;;;5028397;28;20068;-48
2021/09/29 07:16:13;;;;;;;5.38;3.00;;;;;;;;;;5026356;28;20045;-48
2021/09/29 07:18:41;;;;;;;5.57;2.83;;;;;;;;;;5027196;28;20136;-47
2021/09/29 07:21:08;;;;;;;4.68;2.85;;;;;;;;;;5029987;28;20063;-48
2021/09/29 07:23:35;;;;;;;5.00;2.67;;;;;;;;;;5029995;28;20045;-51
2021/09/29 07:26:01;;;;;;;6.53;3.00;;;;;;;;;;5027755;28;20053;-47
2021/09/29 07:28:28;;;;;;;3.70;2.25;;;;;;;;;;5028056;28;20041;-47
2021/09/29 07:30:55;;;;;;;6.60;2.40;;;;;;;;;;5024164;28;20044;-47
2021/09/29 07:33:22;;;;;;;3.25;2.35;;;;;;;;;;5035971;28;20379;-48
2021/09/29 07:35:50;;;;;;;3.97;2.10;;;;;;;;;;5032398;28;20045;-48
2021/09/29 07:38:17;;;;;;;4.45;2.50;;;;;;;;;;5026516;28;20068;-47
2021/09/29 07:40:44;;;;;;;5.07;2.00;;;;;;;;;;5034406;28;20076;-50
2021/09/29 07:43:11;;;;;;;6.43;2.10;;;;;;;;;;5023012;28;20045;-48
2021/09/29 07:45:38;;;;;;;3.70;1.88;;;;;;;;;;5031428;28;20042;-48
2021/09/29 07:48:04;;;;;;;6.30;2.00;;;;;;;;;;5034844;28;20030;-48
2021/09/29 07:50:31;;;;;;;3.50;1.60;;;;;;;;;;5033747;28;20048;-48
2021/09/29 07:52:58;;;;;;;3.47;1.67;;;;;;;;;;5034156;28;20061;-49
2021/09/29 07:55:25;;;;;;;4.88;2.30;;;;;;;;;;5018920;28;20041;-48
2021/09/29 07:57:52;;;;;;;7.03;2.78;;;;;;;;;;5028185;28;20037;-47
2021/09/29 08:00:19;;;;;;;6.63;1.80;;;;;;;;;;5027837;28;20045;-46
2021/09/29 08:02:46;;;;;;;4.07;1.52;;;;;;;;;;5033345;28;20419;-47
2021/09/29 08:05:15;;;;;;;2.67;1.63;;;;;;;;;;5033077;28;20052;-45
2021/09/29 08:07:49;;;;;;;2.97;1.60;;;;;;;;;;5031671;28;20558;-47
2021/09/29 08:10:16;;;;;;;4.78;1.60;;;;;;;;;;5032433;28;20034;-45
2021/09/29 08:12:43;;;;;;;3.35;1.30;;;;;;;;;;5034649;28;20038;-45
2021/09/29 08:15:15;;;;;;;3.40;1.27;;;;;;;;;;5028768;28;20038;-44
2021/09/29 08:17:43;;;;;;;3.40;1.45;;;;;;;;;;5030038;28;20041;-48
2021/09/29 08:20:11;;;;;;;2.55;1.35;;;;;;;;;;5014778;28;20054;-45
2021/09/29 08:22:39;;;;;;;3.65;1.27;;;;;;;;;;5026993;28;20442;-47
2021/09/29 08:33:44;;;;;;;3.83;1.45;;;;;;;;;;5032719;28;20602;-47
2021/09/29 08:44:04;;;;;;;4.55;1.40;;;;;;;;;;5036100;28;20041;-48
2021/09/29 08:47:23;;;;;;;3.58;1.30;;;;;;;;;;5020961;28;20068;-49
2021/09/29 09:16:30;;;;;;;3.72;1.00;;;;;;;;;;5030724;28;20132;-45
2021/09/29 09:18:59;;;;;;;2.85;1.05;;;;;;;;;;5028675;28;20052;-45
2021/09/29 09:21:28;;;;;;;4.53;0.90;;;;;;;;;;5033759;28;20053;-45
2021/09/29 09:24:16;;;;;;;2.97;0.90;;;;;;;;;;5031826;28;21866;-45
2021/09/29 09:26:44;;;;;;;2.42;0.95;;;;;;;;;;5021273;28;20595;-45
2021/09/29 09:29:11;;;;;;;2.78;1.00;;;;;;;;;;5016509;28;20111;-48
2021/09/29 09:31:39;;;;;;;3.40;1.00;;;;;;;;;;5032444;28;20033;-44
2021/09/29 09:34:08;;;;;;;2.53;1.00;;;;;;;;;;5032062;28;20049;-46
2021/09/29 09:36:39;;;;;;;2.72;1.00;;;;;;;;;;5030934;28;20129;-48
2021/09/29 09:39:08;;;;;;;7.43;1.27;;;;;;;;;;5029315;28;20411;-49
2021/09/29 09:41:35;;;;;;;3.83;1.23;;;;;;;;;;5028371;28;20059;-46
2021/09/29 09:44:04;;;;;;;3.75;0.90;;;;;;;;;;5032353;28;20111;-48
2021/09/29 09:46:31;;;;;;;4.07;1.23;;;;;;;;;;5031034;28;20456;-48
2021/09/29 09:49:08;;;;;;;3.75;1.00;;;;;;;;;;5018699;28;20072;-45
2021/09/29 09:51:48;;;;;;;2.67;1.10;;;;;;;;;;5015261;28;20132;-49
2021/09/29 09:54:16;;;;;;;2.63;1.10;;;;;;;;;;5031714;28;20041;-47
2021/09/29 09:56:52;;;;;;;2.47;1.02;;;;;;;;;;5025772;28;20506;-48
2021/09/29 09:59:19;;;;;;;3.47;1.00;;;;;;;;;;5021955;28;20045;-49
2021/09/29 10:01:46;;;;;;;2.40;0.90;;;;;;;;;;5031127;28;20488;-45
2021/09/29 10:04:14;;;;;;;2.78;0.93;;;;;;;;;;5030886;28;20049;-49
2021/09/29 10:06:41;;;;;;;2.85;0.88;;;;;;;;;;5032190;28;20049;-44
2021/09/29 10:09:18;;;;;;;4.20;1.00;;;;;;;;;;5015784;28;20044;-47
2021/09/29 10:27:57;;;;;;;2.00;0.90;;;;;;;;;;5029993;28;20478;-50
2021/09/29 10:30:28;;;;;;;1.85;0.90;;;;;;;;;;5049658;22;20037;-46
2021/09/29 10:33:00;;;;;;;1.38;0.75;;;;;;;;;;5050856;28;20073;-46
2021/09/29 10:43:30;;;;;;;4.05;0.70;;;;;;;;;;5054756;28;20080;-45
2021/09/29 10:46:05;;;;;;;3.80;0.77;;;;;;;;;;5032220;28;20053;-44
2021/09/29 12:12:17;;;;;;;1.90;1.10;;;;;;;;;;5044441;28;20045;-45
2021/09/29 12:14:52;;;;;;;1.95;0.90;;;;;;;;;;5050215;28;20037;-46
2021/09/29 12:17:20;;;;;;;2.40;1.00;;;;;;;;;;5041905;28;20049;-45
2021/09/29 12:19:51;;;;;;;5.28;2.50;;;;;;;;;;5041670;28;20137;-47
2021/09/29 12:22:19;;;;;;;3.42;1.40;;;;;;;;;;5046623;28;20056;-45
2021/09/29 12:28:13;;;;;;;2.53;1.10;;;;;;;;;;5054019;28;20104;-46
2021/09/29 12:30:37;;;;;;;8.20;1.23;;;;;;;;;;5048351;28;20163;-47
2021/09/29 12:35:49;;;;;;;1.75;0.90;;;;;;;;;;5051268;28;20067;-48
2021/09/29 12:38:16;;;;;;;3.40;1.15;;;;;;;;;;5044499;28;20048;-46
2021/09/29 12:40:44;;;;;;;5.63;1.10;;;;;;;;;;5039458;28;20072;-45
2021/09/29 12:43:12;;;;;;;1.92;0.82;;;;;;;;;;5053897;28;20425;-47
2021/09/29 12:45:40;;;;;;;2.30;1.00;;;;;;;;;;5053583;28;20052;-46
2021/09/29 12:48:09;;;;;;;3.03;1.50;;;;;;;;;;5037618;28;20045;-46
2021/09/29 12:50:46;;;;;;;2.83;1.15;;;;;;;;;;5053184;28;20044;-46
2021/09/29 12:53:20;;;;;;;3.70;1.30;;;;;;;;;;5048245;28;20509;-48
2021/09/29 12:56:11;;;;;;;3.60;1.25;;;;;;;;;;5045893;28;20040;-44
2021/09/29 12:58:37;;;;;;;2.60;1.33;;;;;;;;;;5044872;28;20076;-45
2021/09/29 13:01:04;;;;;;;3.35;1.45;;;;;;;;;;5051222;28;20504;-46
2021/09/29 13:03:31;;;;;;;4.57;1.45;;;;;;;;;;5045087;28;20129;-45
2021/09/29 13:05:58;;;;;;;2.80;1.10;;;;;;;;;;5039584;28;20095;-46
2021/09/29 13:08:26;;;;;;;6.95;1.52;;;;;;;;;;5052040;28;20079;-48
2021/09/29 13:10:53;;;;;;;4.25;1.27;;;;;;;;;;5049702;28;20383;-45
2021/09/29 13:13:20;;;;;;;4.22;1.75;;;;;;;;;;5045308;28;20033;-47
2021/09/29 13:15:51;;;;;;;4.22;1.23;;;;;;;;;;5035163;28;20041;-46
2021/09/29 13:20:48;;;;;;;5.72;1.42;;;;;;;;;;5052203;28;20045;-45
2021/09/29 13:23:32;;;;;;;8.43;1.95;;;;;;;;;;5052070;28;20417;-46
2021/09/29 13:36:50;;;;;;;2.72;1.13;;;;;;;;;;5055967;28;20377;-48
2021/09/29 13:39:18;;;;;;;2.42;1.10;;;;;;;;;;5069382;28;20398;-47
2021/09/29 13:41:48;;;;;;;2.70;1.30;;;;;;;;;;5057323;28;20059;-46
2021/09/29 13:44:15;;;;;;;2.90;1.20;;;;;;;;;;5050243;28;20037;-46
2021/09/29 13:46:42;;;;;;;4.47;1.40;;;;;;;;;;5052458;28;20140;-49
2021/09/29 13:49:09;;;;;;;3.45;1.35;;;;;;;;;;5053152;28;20037;-45
2021/09/29 13:51:36;;;;;;;4.53;1.48;;;;;;;;;;5052463;28;20128;-46
2021/09/29 13:54:07;;;;;;;3.55;1.23;;;;;;;;;;5050966;28;20132;-47
2021/09/29 14:29:24;;;;;;;3.80;1.35;;;;;;;;;;5044936;28;20037;-45
2021/09/29 14:34:24;;;;;;;2.83;1.17;;;;;;;;;;5040751;28;20048;-46
2021/09/29 14:36:51;;;;;;;2.28;1.17;;;;;;;;;;5049067;28;20102;-47
2021/09/29 14:39:18;;;;;;;2.88;1.00;;;;;;;;;;5051569;28;20047;-46
2021/09/29 14:41:45;;;;;;;2.03;0.85;;;;;;;;;;5050485;28;20052;-45
2021/09/29 14:44:11;;;;;;;3.60;1.10;;;;;;;;;;5051033;28;20461;-44
2021/09/29 14:46:38;;;;;;;3.42;1.30;;;;;;;;;;5049479;28;20045;-45
2021/09/29 14:49:05;;;;;;;2.22;1.10;;;;;;;;;;5038431;28;20056;-44
2021/09/29 14:51:32;;;;;;;2.78;1.25;;;;;;;;;;5046494;28;20063;-45
2021/09/29 14:53:59;;;;;;;2.95;1.13;;;;;;;;;;5041213;28;20037;-45
2021/09/29 14:56:27;;;;;;;4.05;0.85;;;;;;;;;;5037385;28;20048;-45
2021/09/29 14:58:53;;;;;;;3.00;0.90;;;;;;;;;;5046610;28;20042;-45
2021/09/29 15:01:23;;;;;;;2.63;1.00;;;;;;;;;;5045032;28;20511;-45
2021/09/29 15:03:53;;;;;;;4.13;1.00;;;;;;;;;;5047166;28;20410;-47
2021/09/29 15:06:20;;;;;;;4.93;1.40;;;;;;;;;;5049788;28;20530;-44
2021/09/29 15:08:47;;;;;;;1.02;0.80;;;;;;;;;;5038263;28;20041;-44
2021/09/29 15:11:14;;;;;;;3.75;1.10;;;;;;;;;;5044054;28;20135;-44
2021/09/29 15:13:46;;;;;;;4.68;2.58;;;;;;;;;;5043180;28;20047;-46
2021/09/29 15:16:41;;;;;;;2.42;1.05;;;;;;;;;;5044051;28;20057;-45
2021/09/29 15:48:49;;;;;;;2.80;1.05;;;;;;;;;;5059757;28;20041;-41
2021/09/29 15:54:06;;;;;;;1.52;0.90;;;;;;;;;;5046499;28;20049;-46
2021/09/29 16:02:20;;;;;;;1.55;0.98;;;;;;;;;;5052066;28;20042;-45
2021/09/29 16:34:59;;;;;;;3.08;1.25;;;;;;;;;;5009816;28;20050;-41
2021/09/29 16:37:26;;;;;;;1.80;0.80;;;;;;;;;;5013590;28;20129;-42
2021/09/29 16:39:53;;;;;;;2.17;1.10;;;;;;;;;;5012676;28;20128;-43
2021/09/29 16:42:20;;;;;;;3.70;1.30;;;;;;;;;;5008839;28;20080;-45
2021/09/29 16:44:47;;;;;;;3.28;1.70;;;;;;;;;;5013679;28;20153;-41
2021/09/29 16:47:14;;;;;;;3.78;1.50;;;;;;;;;;5010810;28;20050;-41
2021/09/29 16:49:41;;;;;;;2.33;1.20;;;;;;;;;;5012067;28;20054;-46
2021/09/29 16:54:38;;;;;;;3.33;1.02;;;;;;;;;;5011674;28;20112;-41
2021/09/29 16:57:13;;;;;;;4.60;1.40;;;;;;;;;;5013399;28;20034;-42
2021/09/29 16:59:53;;;;;;;4.25;1.25;;;;;;;;;;5002659;28;20035;-43
2021/09/29 17:02:20;;;;;;;2.17;1.20;;;;;;;;;;5004791;28;20038;-43
2021/09/29 17:04:48;;;;;;;3.40;1.10;;;;;;;;;;5008830;28;20056;-43
2021/09/29 17:07:15;;;;;;;2.70;1.20;;;;;;;;;;5032601;28;20050;-43
2021/09/29 17:09:42;;;;;;;3.50;2.20;;;;;;;;;;4998346;28;20495;-42
2021/09/29 17:12:09;;;;;;;4.05;2.30;;;;;;;;;;4994740;28;20483;-42
2021/09/29 17:14:36;;;;;;;4.05;1.80;;;;;;;;;;5012837;28;20152;-43
2021/09/29 17:17:02;;;;;;;2.95;1.58;;;;;;;;;;5013396;28;20040;-43
2021/09/29 17:19:29;;;;;;;5.63;2.08;;;;;;;;;;5012673;28;20041;-42
2021/09/29 17:21:58;;;;;;;3.92;1.88;;;;;;;;;;5012675;28;20052;-43
2021/09/29 17:24:28;;;;;;;3.28;1.77;;;;;;;;;;5014204;28;20046;-42
2021/09/29 17:26:55;;;;;;;5.35;1.50;;;;;;;;;;5004739;28;20047;-43
2021/09/29 17:29:23;;;;;;;5.13;1.58;;;;;;;;;;5004279;28;20042;-45
2021/09/29 17:31:59;;;;;;;3.88;1.27;;;;;;;;;;4993760;28;20038;-42
2021/09/29 17:37:14;;;;;;;3.20;0.80;;;;;;;;;;5022842;28;20073;-47
2021/09/29 17:48:12;;;;;;;1.40;0.80;;;;;;;;;;5013388;28;20072;-45
2021/09/29 17:53:26;;;;;;;2.80;0.93;;;;;;;;;;5007191;28;20038;-44
2021/09/29 17:55:53;;;;;;;1.38;0.88;;;;;;;;;;5017500;28;20050;-46
2021/09/29 17:58:20;;;;;;;2.03;1.00;;;;;;;;;;5016512;28;20073;-45
2021/09/29 18:00:49;;;;;;;5.22;0.85;;;;;;;;;;5016292;28;20137;-45
2021/09/29 18:03:32;;;;;;;4.03;0.90;;;;;;;;;;5017103;28;20053;-44
2021/09/29 18:06:14;;;;;;;;;;;;;;;;;;5018896;28;20410;-47
2021/09/29 18:08:42;;;;;;;2.70;0.80;;;;;;;;;;5010412;28;19928;-44
2021/09/29 18:11:09;;;;;;;1.52;0.70;;;;;;;;;;5019862;28;20042;-49
2021/09/29 18:13:37;;;;;;;3.78;1.30;;;;;;;;;;5020839;28;20042;-49
2021/09/29 18:16:09;;;;;;;2.17;0.73;;;;;;;;;;5028099;28;20056;-51
2021/09/29 18:18:36;;;;;;;4.60;1.10;;;;;;;;;;5009917;28;20052;-48
2021/09/29 18:21:04;;;;;;;7.93;1.95;;;;;;;;;;5018243;28;20045;-48
2021/09/29 18:23:31;;;;;;;2.83;0.80;;;;;;;;;;5019189;28;20049;-48
2021/09/29 18:26:15;;;;;;;6.15;1.10;;;;;;;;;;5028222;28;20045;-50
2021/09/29 18:28:44;;;;;;;2.75;0.85;;;;;;;;;;5003174;28;20046;-43
2021/09/29 18:31:10;;;;;;;4.80;2.13;;;;;;;;;;5013877;28;20410;-48
2021/09/29 18:33:37;;;;;;;20.98;12.48;;;;;;;;;;5018507;28;20395;-44
2021/09/29 18:36:11;;;;;;;3.90;2.00;;;;;;;;;;5023416;28;20531;-48
2021/09/29 18:38:40;;;;;;;1.95;0.70;;;;;;;;;;5010723;28;20434;-45
2021/09/29 18:41:29;;;;;;;1.25;0.60;;;;;;;;;;5012540;28;20052;-51
2021/09/29 18:43:56;;;;;;;1.08;0.60;;;;;;;;;;5011379;28;20475;-44
2021/09/29 18:46:25;;;;;;;1.13;0.75;;;;;;;;;;5011723;28;20077;-45
2021/09/29 18:48:55;;;;;;;2.80;0.50;;;;;;;;;;4997443;28;20096;-47
2021/09/29 18:51:23;;;;;;;0.65;0.50;;;;;;;;;;5001533;28;20042;-46
2021/09/29 19:09:35;;;;;;;1.02;0.60;;;;;;;;;;4992990;28;20050;-46
2021/09/29 19:12:03;;;;;;;2.13;0.70;;;;;;;;;;5006967;28;20463;-48
2021/09/29 19:14:30;;;;;;;0.60;0.52;;;;;;;;;;5010656;28;20100;-44
2021/09/29 19:16:57;;;;;;;1.50;0.70;;;;;;;;;;5005146;28;20038;-45
2021/09/29 19:19:24;;;;;;;3.03;0.77;;;;;;;;;;5010927;28;20088;-48
2021/09/29 19:21:51;;;;;;;1.95;0.70;;;;;;;;;;5010297;28;20060;-45
2021/09/29 19:24:17;;;;;;;1.90;0.68;;;;;;;;;;5008369;28;20043;-49
2021/09/29 19:26:44;;;;;;;1.13;0.60;;;;;;;;;;5010230;28;20450;-48
2021/09/29 19:29:11;;;;;;;1.42;0.90;;;;;;;;;;5010728;28;20121;-44
2021/09/29 19:31:38;;;;;;;0.63;0.52;;;;;;;;;;5013411;28;20045;-48
2021/09/29 19:34:04;;;;;;;2.60;0.75;;;;;;;;;;5014743;28;20038;-46
2021/09/29 19:36:31;;;;;;;4.25;2.20;;;;;;;;;;5014089;28;20132;-45
2021/09/29 19:38:58;;;;;;;1.98;1.05;;;;;;;;;;5014241;28;20038;-43
2021/09/29 19:41:25;;;;;;;2.80;1.60;;;;;;;;;;5014758;28;20558;-46
2021/09/29 19:43:52;;;;;;;1.77;0.75;;;;;;;;;;5013994;28;20050;-50